sensor_id;sensor_type;location;lat;lon;timestamp;P1;durP1;ratioP1;P2;durP2;ratioP2
11839;SDS011;5979;50.800;4.904;2024-03-08T00:01:30;24.30;;;15.35;;
11839;SDS011;5979;50.800;4.904;2024-03-08T00:03:56;22.00;;;13.57;;
11839;SDS011;5979;50.800;4.904;2024-03-08T00:06:21;24.38;;;15.13;;
11839;SDS011;5979;50.800;4.904;2024-03-08T00:08:47;21.35;;;14.70;;
11839;SDS011;5979;50.800;4.904;2024-03-08T00:11:13;22.95;;;13.80;;
11839;SDS011;5979;50.800;4.904;2024-03-08T00:13:38;22.45;;;13.75;;
11839;SDS011;5979;50.800;4.904;2024-03-08T00:16:04;21.50;;;14.60;;
11839;SDS011;5979;50.800;4.904;2024-03-08T00:18:30;22.75;;;14.65;;
11839;SDS011;5979;50.800;4.904;2024-03-08T00:20:56;21.48;;;15.00;;
11839;SDS011;5979;50.800;4.904;2024-03-08T00:23:21;21.75;;;14.20;;
11839;SDS011;5979;50.800;4.904;2024-03-08T00:25:48;26.20;;;14.95;;
11839;SDS011;5979;50.800;4.904;2024-03-08T00:28:14;26.85;;;15.77;;
11839;SDS011;5979;50.800;4.904;2024-03-08T00:30:42;21.60;;;14.50;;
11839;SDS011;5979;50.800;4.904;2024-03-08T00:33:07;21.00;;;14.05;;
11839;SDS011;5979;50.800;4.904;2024-03-08T00:35:33;22.13;;;14.75;;
11839;SDS011;5979;50.800;4.904;2024-03-08T00:37:59;25.88;;;15.45;;
11839;SDS011;5979;50.800;4.904;2024-03-08T00:40:24;25.13;;;15.50;;
11839;SDS011;5979;50.800;4.904;2024-03-08T00:42:50;25.15;;;16.00;;
11839;SDS011;5979;50.800;4.904;2024-03-08T00:45:18;24.23;;;15.82;;
11839;SDS011;5979;50.800;4.904;2024-03-08T00:47:43;19.60;;;14.18;;
11839;SDS011;5979;50.800;4.904;2024-03-08T00:50:09;23.48;;;15.00;;
11839;SDS011;5979;50.800;4.904;2024-03-08T00:52:36;22.20;;;15.23;;
11839;SDS011;5979;50.800;4.904;2024-03-08T00:55:02;22.58;;;14.80;;
11839;SDS011;5979;50.800;4.904;2024-03-08T00:57:28;24.30;;;15.75;;
11839;SDS011;5979;50.800;4.904;2024-03-08T00:59:55;23.17;;;15.60;;
11839;SDS011;5979;50.800;4.904;2024-03-08T01:02:21;24.58;;;16.50;;
11839;SDS011;5979;50.800;4.904;2024-03-08T01:04:48;27.15;;;17.30;;
11839;SDS011;5979;50.800;4.904;2024-03-08T01:07:14;23.92;;;15.95;;
11839;SDS011;5979;50.800;4.904;2024-03-08T01:09:40;25.83;;;15.77;;
11839;SDS011;5979;50.800;4.904;2024-03-08T01:12:06;24.73;;;16.55;;
11839;SDS011;5979;50.800;4.904;2024-03-08T01:14:32;28.65;;;16.83;;
11839;SDS011;5979;50.800;4.904;2024-03-08T01:16:58;23.02;;;15.30;;
11839;SDS011;5979;50.800;4.904;2024-03-08T01:19:24;25.13;;;16.25;;
11839;SDS011;5979;50.800;4.904;2024-03-08T01:21:50;24.30;;;16.15;;
11839;SDS011;5979;50.800;4.904;2024-03-08T01:24:16;25.23;;;16.17;;
11839;SDS011;5979;50.800;4.904;2024-03-08T01:26:42;22.95;;;16.63;;
11839;SDS011;5979;50.800;4.904;2024-03-08T01:29:07;24.83;;;16.83;;
11839;SDS011;5979;50.800;4.904;2024-03-08T01:31:33;25.03;;;16.97;;
11839;SDS011;5979;50.800;4.904;2024-03-08T01:33:59;25.27;;;16.63;;
11839;SDS011;5979;50.800;4.904;2024-03-08T01:36:25;23.73;;;17.03;;
11839;SDS011;5979;50.800;4.904;2024-03-08T01:38:51;24.55;;;17.67;;
11839;SDS011;5979;50.800;4.904;2024-03-08T01:41:17;21.75;;;16.73;;
11839;SDS011;5979;50.800;4.904;2024-03-08T01:43:43;28.00;;;18.00;;
11839;SDS011;5979;50.800;4.904;2024-03-08T01:46:10;25.52;;;17.27;;
11839;SDS011;5979;50.800;4.904;2024-03-08T01:48:40;24.55;;;17.00;;
11839;SDS011;5979;50.800;4.904;2024-03-08T01:51:06;27.20;;;17.27;;
11839;SDS011;5979;50.800;4.904;2024-03-08T01:53:32;26.05;;;17.73;;
11839;SDS011;5979;50.800;4.904;2024-03-08T01:55:59;25.27;;;18.03;;
11839;SDS011;5979;50.800;4.904;2024-03-08T01:58:27;27.00;;;18.25;;
11839;SDS011;5979;50.800;4.904;2024-03-08T02:00:54;23.73;;;18.10;;
11839;SDS011;5979;50.800;4.904;2024-03-08T02:03:22;25.33;;;17.97;;
11839;SDS011;5979;50.800;4.904;2024-03-08T02:05:47;22.38;;;17.65;;
11839;SDS011;5979;50.800;4.904;2024-03-08T02:08:14;27.23;;;18.63;;
11839;SDS011;5979;50.800;4.904;2024-03-08T02:10:41;26.07;;;17.80;;
11839;SDS011;5979;50.800;4.904;2024-03-08T02:13:07;25.75;;;18.83;;
11839;SDS011;5979;50.800;4.904;2024-03-08T02:18:18;25.43;;;18.10;;
11839;SDS011;5979;50.800;4.904;2024-03-08T02:20:47;25.33;;;18.40;;
11839;SDS011;5979;50.800;4.904;2024-03-08T02:23:14;27.52;;;18.08;;
11839;SDS011;5979;50.800;4.904;2024-03-08T02:25:40;24.13;;;19.23;;
11839;SDS011;5979;50.800;4.904;2024-03-08T02:28:08;25.90;;;18.40;;
11839;SDS011;5979;50.800;4.904;2024-03-08T02:30:37;26.17;;;19.20;;
11839;SDS011;5979;50.800;4.904;2024-03-08T02:33:07;26.97;;;18.57;;
11839;SDS011;5979;50.800;4.904;2024-03-08T02:35:34;24.52;;;18.27;;
11839;SDS011;5979;50.800;4.904;2024-03-08T02:38:00;28.33;;;20.13;;
11839;SDS011;5979;50.800;4.904;2024-03-08T02:40:26;33.70;;;19.42;;
11839;SDS011;5979;50.800;4.904;2024-03-08T02:42:52;24.15;;;19.10;;
11839;SDS011;5979;50.800;4.904;2024-03-08T02:45:18;24.30;;;19.30;;
11839;SDS011;5979;50.800;4.904;2024-03-08T02:47:44;26.75;;;19.77;;
11839;SDS011;5979;50.800;4.904;2024-03-08T02:50:10;25.23;;;18.60;;
11839;SDS011;5979;50.800;4.904;2024-03-08T02:52:36;28.23;;;19.90;;
11839;SDS011;5979;50.800;4.904;2024-03-08T02:55:02;25.23;;;18.53;;
11839;SDS011;5979;50.800;4.904;2024-03-08T02:57:31;25.90;;;19.17;;
11839;SDS011;5979;50.800;4.904;2024-03-08T02:59:57;27.80;;;18.93;;
11839;SDS011;5979;50.800;4.904;2024-03-08T03:02:24;30.30;;;19.33;;
11839;SDS011;5979;50.800;4.904;2024-03-08T03:04:51;27.73;;;18.63;;
11839;SDS011;5979;50.800;4.904;2024-03-08T03:07:17;28.00;;;19.73;;
11839;SDS011;5979;50.800;4.904;2024-03-08T03:09:44;27.23;;;19.52;;
11839;SDS011;5979;50.800;4.904;2024-03-08T03:12:10;27.40;;;19.93;;
11839;SDS011;5979;50.800;4.904;2024-03-08T03:14:36;26.87;;;19.33;;
11839;SDS011;5979;50.800;4.904;2024-03-08T03:17:04;26.57;;;19.80;;
11839;SDS011;5979;50.800;4.904;2024-03-08T03:19:30;30.63;;;19.53;;
11839;SDS011;5979;50.800;4.904;2024-03-08T03:21:56;28.00;;;19.80;;
11839;SDS011;5979;50.800;4.904;2024-03-08T03:24:22;26.98;;;19.55;;
11839;SDS011;5979;50.800;4.904;2024-03-08T03:26:48;29.20;;;19.93;;
11839;SDS011;5979;50.800;4.904;2024-03-08T03:29:14;30.20;;;19.23;;
11839;SDS011;5979;50.800;4.904;2024-03-08T03:31:42;29.20;;;19.30;;
11839;SDS011;5979;50.800;4.904;2024-03-08T03:34:11;28.83;;;19.47;;
11839;SDS011;5979;50.800;4.904;2024-03-08T03:36:37;29.03;;;20.10;;
11839;SDS011;5979;50.800;4.904;2024-03-08T03:39:07;27.17;;;19.90;;
11839;SDS011;5979;50.800;4.904;2024-03-08T03:41:38;28.27;;;19.80;;
11839;SDS011;5979;50.800;4.904;2024-03-08T03:44:04;27.50;;;19.57;;
11839;SDS011;5979;50.800;4.904;2024-03-08T03:46:32;25.25;;;17.77;;
11839;SDS011;5979;50.800;4.904;2024-03-08T03:48:58;26.70;;;19.43;;
11839;SDS011;5979;50.800;4.904;2024-03-08T03:51:23;30.60;;;20.33;;
11839;SDS011;5979;50.800;4.904;2024-03-08T03:53:49;27.73;;;18.77;;
11839;SDS011;5979;50.800;4.904;2024-03-08T03:56:15;28.77;;;19.73;;
11839;SDS011;5979;50.800;4.904;2024-03-08T03:58:41;27.17;;;18.93;;
11839;SDS011;5979;50.800;4.904;2024-03-08T04:01:07;25.93;;;19.60;;
11839;SDS011;5979;50.800;4.904;2024-03-08T04:03:34;25.67;;;18.93;;
11839;SDS011;5979;50.800;4.904;2024-03-08T04:06:00;26.80;;;20.50;;
11839;SDS011;5979;50.800;4.904;2024-03-08T04:08:27;28.10;;;20.17;;
11839;SDS011;5979;50.800;4.904;2024-03-08T04:10:52;29.23;;;19.87;;
11839;SDS011;5979;50.800;4.904;2024-03-08T04:13:18;28.50;;;19.83;;
11839;SDS011;5979;50.800;4.904;2024-03-08T04:15:45;26.63;;;19.70;;
11839;SDS011;5979;50.800;4.904;2024-03-08T04:18:13;29.77;;;20.03;;
11839;SDS011;5979;50.800;4.904;2024-03-08T04:20:39;27.03;;;20.40;;
11839;SDS011;5979;50.800;4.904;2024-03-08T04:23:05;28.90;;;20.33;;
11839;SDS011;5979;50.800;4.904;2024-03-08T04:25:31;28.23;;;20.00;;
11839;SDS011;5979;50.800;4.904;2024-03-08T04:27:58;28.40;;;19.07;;
11839;SDS011;5979;50.800;4.904;2024-03-08T04:30:24;29.77;;;20.03;;
11839;SDS011;5979;50.800;4.904;2024-03-08T04:32:49;28.67;;;19.83;;
11839;SDS011;5979;50.800;4.904;2024-03-08T04:35:15;28.80;;;19.17;;
11839;SDS011;5979;50.800;4.904;2024-03-08T04:37:41;30.93;;;19.70;;
11839;SDS011;5979;50.800;4.904;2024-03-08T04:40:07;30.30;;;19.80;;
11839;SDS011;5979;50.800;4.904;2024-03-08T04:42:33;29.03;;;20.00;;
11839;SDS011;5979;50.800;4.904;2024-03-08T04:44:59;29.40;;;19.80;;
11839;SDS011;5979;50.800;4.904;2024-03-08T04:47:25;27.07;;;18.43;;
11839;SDS011;5979;50.800;4.904;2024-03-08T04:49:51;27.37;;;18.50;;
11839;SDS011;5979;50.800;4.904;2024-03-08T04:52:16;31.23;;;19.20;;
11839;SDS011;5979;50.800;4.904;2024-03-08T04:54:43;29.30;;;19.50;;
11839;SDS011;5979;50.800;4.904;2024-03-08T04:57:09;31.53;;;20.37;;
11839;SDS011;5979;50.800;4.904;2024-03-08T04:59:36;29.17;;;20.10;;
11839;SDS011;5979;50.800;4.904;2024-03-08T05:02:02;26.87;;;19.33;;
11839;SDS011;5979;50.800;4.904;2024-03-08T05:04:28;27.53;;;18.83;;
11839;SDS011;5979;50.800;4.904;2024-03-08T05:06:54;26.27;;;18.73;;
11839;SDS011;5979;50.800;4.904;2024-03-08T05:09:20;28.73;;;18.37;;
11839;SDS011;5979;50.800;4.904;2024-03-08T05:11:46;29.57;;;19.83;;
11839;SDS011;5979;50.800;4.904;2024-03-08T05:14:12;28.33;;;19.00;;
11839;SDS011;5979;50.800;4.904;2024-03-08T05:16:45;28.93;;;19.47;;
11839;SDS011;5979;50.800;4.904;2024-03-08T05:19:18;29.67;;;19.43;;
11839;SDS011;5979;50.800;4.904;2024-03-08T05:21:45;32.07;;;18.63;;
11839;SDS011;5979;50.800;4.904;2024-03-08T05:24:11;27.63;;;18.53;;
11839;SDS011;5979;50.800;4.904;2024-03-08T05:26:38;29.57;;;19.37;;
11839;SDS011;5979;50.800;4.904;2024-03-08T05:29:04;30.83;;;20.53;;
11839;SDS011;5979;50.800;4.904;2024-03-08T05:31:31;28.70;;;18.47;;
11839;SDS011;5979;50.800;4.904;2024-03-08T05:34:07;28.93;;;18.53;;
11839;SDS011;5979;50.800;4.904;2024-03-08T05:36:35;30.00;;;19.53;;
11839;SDS011;5979;50.800;4.904;2024-03-08T05:39:00;28.83;;;19.50;;
11839;SDS011;5979;50.800;4.904;2024-03-08T05:41:26;28.40;;;19.27;;
11839;SDS011;5979;50.800;4.904;2024-03-08T05:43:52;29.37;;;19.17;;
11839;SDS011;5979;50.800;4.904;2024-03-08T05:46:18;28.40;;;19.27;;
11839;SDS011;5979;50.800;4.904;2024-03-08T05:48:44;28.40;;;18.77;;
11839;SDS011;5979;50.800;4.904;2024-03-08T05:51:10;28.27;;;18.30;;
11839;SDS011;5979;50.800;4.904;2024-03-08T05:53:37;28.07;;;18.77;;
11839;SDS011;5979;50.800;4.904;2024-03-08T05:56:03;28.00;;;19.03;;
11839;SDS011;5979;50.800;4.904;2024-03-08T05:58:28;32.40;;;20.23;;
11839;SDS011;5979;50.800;4.904;2024-03-08T06:00:57;28.33;;;18.50;;
11839;SDS011;5979;50.800;4.904;2024-03-08T06:03:23;30.37;;;19.67;;
11839;SDS011;5979;50.800;4.904;2024-03-08T06:05:48;30.73;;;19.97;;
11839;SDS011;5979;50.800;4.904;2024-03-08T06:08:14;27.37;;;17.73;;
11839;SDS011;5979;50.800;4.904;2024-03-08T06:10:40;28.20;;;18.93;;
11839;SDS011;5979;50.800;4.904;2024-03-08T06:13:06;31.30;;;19.40;;
11839;SDS011;5979;50.800;4.904;2024-03-08T06:15:32;27.63;;;19.00;;
11839;SDS011;5979;50.800;4.904;2024-03-08T06:17:59;33.27;;;20.03;;
11839;SDS011;5979;50.800;4.904;2024-03-08T06:20:25;35.60;;;20.50;;
11839;SDS011;5979;50.800;4.904;2024-03-08T06:22:51;30.93;;;19.90;;
11839;SDS011;5979;50.800;4.904;2024-03-08T06:25:17;30.37;;;18.93;;
11839;SDS011;5979;50.800;4.904;2024-03-08T06:27:43;31.23;;;18.70;;
11839;SDS011;5979;50.800;4.904;2024-03-08T06:30:11;26.63;;;18.97;;
11839;SDS011;5979;50.800;4.904;2024-03-08T06:32:37;27.43;;;18.90;;
11839;SDS011;5979;50.800;4.904;2024-03-08T06:35:03;27.53;;;18.53;;
11839;SDS011;5979;50.800;4.904;2024-03-08T06:37:33;28.93;;;19.17;;
11839;SDS011;5979;50.800;4.904;2024-03-08T06:39:59;31.77;;;18.83;;
11839;SDS011;5979;50.800;4.904;2024-03-08T06:42:26;28.33;;;18.43;;
11839;SDS011;5979;50.800;4.904;2024-03-08T06:44:52;30.10;;;19.47;;
11839;SDS011;5979;50.800;4.904;2024-03-08T06:47:20;29.30;;;20.13;;
11839;SDS011;5979;50.800;4.904;2024-03-08T06:49:46;26.93;;;18.20;;
11839;SDS011;5979;50.800;4.904;2024-03-08T06:52:12;29.93;;;19.50;;
11839;SDS011;5979;50.800;4.904;2024-03-08T06:54:37;28.90;;;18.43;;
11839;SDS011;5979;50.800;4.904;2024-03-08T06:57:04;25.93;;;18.00;;
11839;SDS011;5979;50.800;4.904;2024-03-08T06:59:30;25.70;;;17.73;;
11839;SDS011;5979;50.800;4.904;2024-03-08T07:01:56;29.93;;;18.40;;
11839;SDS011;5979;50.800;4.904;2024-03-08T07:04:22;30.20;;;18.90;;
11839;SDS011;5979;50.800;4.904;2024-03-08T07:06:51;28.50;;;18.73;;
11839;SDS011;5979;50.800;4.904;2024-03-08T07:09:17;26.80;;;17.77;;
11839;SDS011;5979;50.800;4.904;2024-03-08T07:11:43;27.70;;;18.65;;
11839;SDS011;5979;50.800;4.904;2024-03-08T07:14:08;30.15;;;19.10;;
11839;SDS011;5979;50.800;4.904;2024-03-08T07:16:34;28.70;;;19.25;;
11839;SDS011;5979;50.800;4.904;2024-03-08T07:19:04;26.90;;;18.33;;
11839;SDS011;5979;50.800;4.904;2024-03-08T07:21:30;25.10;;;17.80;;
11839;SDS011;5979;50.800;4.904;2024-03-08T07:23:56;27.33;;;17.73;;
11839;SDS011;5979;50.800;4.904;2024-03-08T07:26:25;28.35;;;19.30;;
11839;SDS011;5979;50.800;4.904;2024-03-08T07:28:50;30.17;;;19.27;;
11839;SDS011;5979;50.800;4.904;2024-03-08T07:31:16;29.13;;;18.47;;
11839;SDS011;5979;50.800;4.904;2024-03-08T07:33:52;29.03;;;18.30;;
11839;SDS011;5979;50.800;4.904;2024-03-08T07:36:18;29.45;;;17.98;;
11839;SDS011;5979;50.800;4.904;2024-03-08T07:38:44;25.42;;;17.42;;
11839;SDS011;5979;50.800;4.904;2024-03-08T07:41:13;25.58;;;16.98;;
11839;SDS011;5979;50.800;4.904;2024-03-08T07:43:41;25.65;;;17.50;;
11839;SDS011;5979;50.800;4.904;2024-03-08T07:46:07;33.35;;;17.65;;
11839;SDS011;5979;50.800;4.904;2024-03-08T07:48:35;23.27;;;16.90;;
11839;SDS011;5979;50.800;4.904;2024-03-08T07:51:01;30.10;;;19.67;;
11839;SDS011;5979;50.800;4.904;2024-03-08T07:53:30;27.25;;;18.17;;
11839;SDS011;5979;50.800;4.904;2024-03-08T07:55:56;25.98;;;18.02;;
11839;SDS011;5979;50.800;4.904;2024-03-08T07:58:22;25.60;;;17.55;;
11839;SDS011;5979;50.800;4.904;2024-03-08T08:00:48;26.02;;;18.10;;
11839;SDS011;5979;50.800;4.904;2024-03-08T08:03:14;25.85;;;17.45;;
11839;SDS011;5979;50.800;4.904;2024-03-08T08:05:41;27.90;;;18.30;;
11839;SDS011;5979;50.800;4.904;2024-03-08T08:08:07;25.67;;;17.63;;
11839;SDS011;5979;50.800;4.904;2024-03-08T08:10:35;26.08;;;17.70;;
11839;SDS011;5979;50.800;4.904;2024-03-08T08:13:02;24.75;;;16.88;;
11839;SDS011;5979;50.800;4.904;2024-03-08T08:15:29;24.20;;;16.20;;
11839;SDS011;5979;50.800;4.904;2024-03-08T08:17:55;27.88;;;18.10;;
11839;SDS011;5979;50.800;4.904;2024-03-08T08:20:21;25.13;;;17.65;;
11839;SDS011;5979;50.800;4.904;2024-03-08T08:22:48;25.50;;;17.90;;
11839;SDS011;5979;50.800;4.904;2024-03-08T08:25:13;28.77;;;17.63;;
11839;SDS011;5979;50.800;4.904;2024-03-08T08:27:40;28.73;;;17.38;;
11839;SDS011;5979;50.800;4.904;2024-03-08T08:30:07;23.20;;;16.30;;
11839;SDS011;5979;50.800;4.904;2024-03-08T08:32:37;24.83;;;15.73;;
11839;SDS011;5979;50.800;4.904;2024-03-08T08:35:07;24.38;;;17.60;;
11839;SDS011;5979;50.800;4.904;2024-03-08T08:37:40;23.38;;;16.40;;
11839;SDS011;5979;50.800;4.904;2024-03-08T08:40:06;26.05;;;16.90;;
11839;SDS011;5979;50.800;4.904;2024-03-08T08:42:39;25.45;;;16.98;;
11839;SDS011;5979;50.800;4.904;2024-03-08T08:45:05;26.48;;;16.02;;
11839;SDS011;5979;50.800;4.904;2024-03-08T08:47:35;24.90;;;16.98;;
11839;SDS011;5979;50.800;4.904;2024-03-08T08:50:02;26.33;;;17.95;;
11839;SDS011;5979;50.800;4.904;2024-03-08T08:52:29;25.92;;;16.02;;
11839;SDS011;5979;50.800;4.904;2024-03-08T08:54:56;25.90;;;17.25;;
11839;SDS011;5979;50.800;4.904;2024-03-08T08:57:22;25.17;;;17.65;;
11839;SDS011;5979;50.800;4.904;2024-03-08T08:59:49;23.00;;;16.70;;
11839;SDS011;5979;50.800;4.904;2024-03-08T09:02:15;25.92;;;17.25;;
11839;SDS011;5979;50.800;4.904;2024-03-08T09:04:42;24.52;;;16.45;;
11839;SDS011;5979;50.800;4.904;2024-03-08T09:07:09;25.35;;;16.95;;
11839;SDS011;5979;50.800;4.904;2024-03-08T09:09:34;25.10;;;16.27;;
11839;SDS011;5979;50.800;4.904;2024-03-08T09:12:01;25.27;;;17.33;;
11839;SDS011;5979;50.800;4.904;2024-03-08T09:14:27;24.40;;;16.90;;
11839;SDS011;5979;50.800;4.904;2024-03-08T09:16:52;22.00;;;16.20;;
11839;SDS011;5979;50.800;4.904;2024-03-08T09:19:18;19.13;;;15.38;;
11839;SDS011;5979;50.800;4.904;2024-03-08T09:21:44;24.02;;;16.92;;
11839;SDS011;5979;50.800;4.904;2024-03-08T09:24:10;23.25;;;15.82;;
11839;SDS011;5979;50.800;4.904;2024-03-08T09:26:37;25.75;;;16.40;;
11839;SDS011;5979;50.800;4.904;2024-03-08T09:29:03;23.25;;;16.52;;
11839;SDS011;5979;50.800;4.904;2024-03-08T09:31:31;25.27;;;16.42;;
11839;SDS011;5979;50.800;4.904;2024-03-08T09:33:57;23.58;;;15.63;;
11839;SDS011;5979;50.800;4.904;2024-03-08T09:36:23;23.48;;;15.77;;
11839;SDS011;5979;50.800;4.904;2024-03-08T09:38:50;27.92;;;17.58;;
11839;SDS011;5979;50.800;4.904;2024-03-08T09:41:16;23.52;;;16.40;;
11839;SDS011;5979;50.800;4.904;2024-03-08T09:43:42;23.98;;;16.35;;
11839;SDS011;5979;50.800;4.904;2024-03-08T09:46:08;22.92;;;16.30;;
11839;SDS011;5979;50.800;4.904;2024-03-08T09:48:34;22.58;;;15.75;;
11839;SDS011;5979;50.800;4.904;2024-03-08T09:51:00;25.70;;;16.13;;
11839;SDS011;5979;50.800;4.904;2024-03-08T09:53:26;23.38;;;15.57;;
11839;SDS011;5979;50.800;4.904;2024-03-08T09:55:51;20.90;;;15.18;;
11839;SDS011;5979;50.800;4.904;2024-03-08T09:58:17;22.42;;;15.85;;
11839;SDS011;5979;50.800;4.904;2024-03-08T10:01:07;24.90;;;15.82;;
11839;SDS011;5979;50.800;4.904;2024-03-08T10:03:33;19.58;;;15.10;;
11839;SDS011;5979;50.800;4.904;2024-03-08T10:05:59;19.58;;;15.10;;
11839;SDS011;5979;50.800;4.904;2024-03-08T10:08:27;20.73;;;15.48;;
11839;SDS011;5979;50.800;4.904;2024-03-08T10:10:56;23.45;;;15.68;;
11839;SDS011;5979;50.800;4.904;2024-03-08T10:13:23;20.65;;;14.82;;
11839;SDS011;5979;50.800;4.904;2024-03-08T10:15:51;19.95;;;15.65;;
11839;SDS011;5979;50.800;4.904;2024-03-08T10:18:17;20.38;;;15.23;;
11839;SDS011;5979;50.800;4.904;2024-03-08T10:20:43;22.67;;;15.82;;
11839;SDS011;5979;50.800;4.904;2024-03-08T10:23:09;19.85;;;15.25;;
11839;SDS011;5979;50.800;4.904;2024-03-08T10:25:35;21.60;;;15.73;;
11839;SDS011;5979;50.800;4.904;2024-03-08T10:28:04;21.63;;;15.32;;
11839;SDS011;5979;50.800;4.904;2024-03-08T10:30:31;21.25;;;14.82;;
11839;SDS011;5979;50.800;4.904;2024-03-08T10:32:57;23.27;;;16.23;;
11839;SDS011;5979;50.800;4.904;2024-03-08T10:35:23;20.42;;;14.68;;
11839;SDS011;5979;50.800;4.904;2024-03-08T10:37:52;22.95;;;15.90;;
11839;SDS011;5979;50.800;4.904;2024-03-08T10:40:27;21.33;;;15.43;;
11839;SDS011;5979;50.800;4.904;2024-03-08T10:42:55;25.65;;;17.05;;
11839;SDS011;5979;50.800;4.904;2024-03-08T10:45:23;22.92;;;16.80;;
11839;SDS011;5979;50.800;4.904;2024-03-08T10:48:04;24.17;;;15.80;;
11839;SDS011;5979;50.800;4.904;2024-03-08T10:50:36;19.15;;;14.90;;
11839;SDS011;5979;50.800;4.904;2024-03-08T10:53:04;22.63;;;16.02;;
11839;SDS011;5979;50.800;4.904;2024-03-08T10:55:31;22.25;;;15.45;;
11839;SDS011;5979;50.800;4.904;2024-03-08T10:58:01;22.77;;;16.52;;
11839;SDS011;5979;50.800;4.904;2024-03-08T11:00:27;20.77;;;14.75;;
11839;SDS011;5979;50.800;4.904;2024-03-08T11:02:53;26.00;;;16.67;;
11839;SDS011;5979;50.800;4.904;2024-03-08T11:10:51;21.75;;;16.35;;
11839;SDS011;5979;50.800;4.904;2024-03-08T11:13:42;21.70;;;16.00;;
11839;SDS011;5979;50.800;4.904;2024-03-08T11:16:11;20.80;;;15.40;;
11839;SDS011;5979;50.800;4.904;2024-03-08T11:18:59;24.20;;;16.23;;
11839;SDS011;5979;50.800;4.904;2024-03-08T11:21:32;20.08;;;14.82;;
11839;SDS011;5979;50.800;4.904;2024-03-08T11:24:02;21.88;;;15.77;;
11839;SDS011;5979;50.800;4.904;2024-03-08T11:26:32;23.15;;;15.90;;
11839;SDS011;5979;50.800;4.904;2024-03-08T11:32:07;22.27;;;16.58;;
11839;SDS011;5979;50.800;4.904;2024-03-08T11:34:35;22.50;;;16.30;;
11839;SDS011;5979;50.800;4.904;2024-03-08T11:37:05;21.02;;;15.85;;
11839;SDS011;5979;50.800;4.904;2024-03-08T11:39:37;18.27;;;14.70;;
11839;SDS011;5979;50.800;4.904;2024-03-08T11:42:16;22.88;;;15.95;;
11839;SDS011;5979;50.800;4.904;2024-03-08T11:44:46;23.30;;;16.02;;
11839;SDS011;5979;50.800;4.904;2024-03-08T11:47:12;20.63;;;15.00;;
11839;SDS011;5979;50.800;4.904;2024-03-08T11:49:39;21.95;;;15.88;;
11839;SDS011;5979;50.800;4.904;2024-03-08T11:52:15;19.23;;;14.98;;
11839;SDS011;5979;50.800;4.904;2024-03-08T11:54:43;21.20;;;15.73;;
11839;SDS011;5979;50.800;4.904;2024-03-08T11:57:19;19.55;;;14.88;;
11839;SDS011;5979;50.800;4.904;2024-03-08T11:59:54;18.88;;;14.80;;
11839;SDS011;5979;50.800;4.904;2024-03-08T12:02:30;19.30;;;14.55;;
11839;SDS011;5979;50.800;4.904;2024-03-08T12:04:56;23.67;;;15.57;;
11839;SDS011;5979;50.800;4.904;2024-03-08T12:07:24;21.10;;;15.65;;
11839;SDS011;5979;50.800;4.904;2024-03-08T12:12:46;20.75;;;14.93;;
11839;SDS011;5979;50.800;4.904;2024-03-08T12:15:15;19.63;;;15.20;;
11839;SDS011;5979;50.800;4.904;2024-03-08T12:17:43;23.30;;;15.43;;
11839;SDS011;5979;50.800;4.904;2024-03-08T12:20:16;22.75;;;14.75;;
11839;SDS011;5979;50.800;4.904;2024-03-08T12:22:55;18.63;;;14.32;;
11839;SDS011;5979;50.800;4.904;2024-03-08T12:25:27;20.95;;;15.80;;
11839;SDS011;5979;50.800;4.904;2024-03-08T12:28:06;25.20;;;16.20;;
11839;SDS011;5979;50.800;4.904;2024-03-08T12:30:47;21.60;;;15.65;;
11839;SDS011;5979;50.800;4.904;2024-03-08T12:33:14;20.98;;;14.35;;
11839;SDS011;5979;50.800;4.904;2024-03-08T12:35:40;17.67;;;13.32;;
11839;SDS011;5979;50.800;4.904;2024-03-08T12:38:07;17.55;;;13.98;;
11839;SDS011;5979;50.800;4.904;2024-03-08T12:40:33;20.23;;;14.80;;
11839;SDS011;5979;50.800;4.904;2024-03-08T12:42:59;21.48;;;14.90;;
11839;SDS011;5979;50.800;4.904;2024-03-08T12:45:31;18.25;;;13.63;;
11839;SDS011;5979;50.800;4.904;2024-03-08T12:47:57;17.98;;;14.02;;
11839;SDS011;5979;50.800;4.904;2024-03-08T12:50:24;20.35;;;13.52;;
11839;SDS011;5979;50.800;4.904;2024-03-08T12:52:50;18.52;;;13.77;;
11839;SDS011;5979;50.800;4.904;2024-03-08T12:55:19;18.27;;;14.98;;
11839;SDS011;5979;50.800;4.904;2024-03-08T12:57:45;17.92;;;13.55;;
11839;SDS011;5979;50.800;4.904;2024-03-08T13:00:12;18.02;;;14.10;;
11839;SDS011;5979;50.800;4.904;2024-03-08T13:02:48;18.60;;;14.43;;
11839;SDS011;5979;50.800;4.904;2024-03-08T13:05:16;21.50;;;13.68;;
11839;SDS011;5979;50.800;4.904;2024-03-08T13:07:42;16.88;;;12.82;;
11839;SDS011;5979;50.800;4.904;2024-03-08T13:10:14;17.38;;;13.35;;
11839;SDS011;5979;50.800;4.904;2024-03-08T13:12:44;17.98;;;13.55;;
11839;SDS011;5979;50.800;4.904;2024-03-08T13:15:10;18.10;;;13.23;;
11839;SDS011;5979;50.800;4.904;2024-03-08T13:17:40;22.38;;;12.73;;
11839;SDS011;5979;50.800;4.904;2024-03-08T13:20:07;26.73;;;11.30;;
11839;SDS011;5979;50.800;4.904;2024-03-08T13:22:34;13.88;;;10.27;;
11839;SDS011;5979;50.800;4.904;2024-03-08T13:25:01;14.40;;;10.10;;
11839;SDS011;5979;50.800;4.904;2024-03-08T13:27:27;22.38;;;11.48;;
11839;SDS011;5979;50.800;4.904;2024-03-08T13:29:53;13.05;;;9.95;;
11839;SDS011;5979;50.800;4.904;2024-03-08T13:32:19;11.40;;;9.82;;
11839;SDS011;5979;50.800;4.904;2024-03-08T13:34:49;14.05;;;10.35;;
11839;SDS011;5979;50.800;4.904;2024-03-08T13:37:19;13.52;;;10.52;;
11839;SDS011;5979;50.800;4.904;2024-03-08T13:39:44;12.98;;;9.98;;
11839;SDS011;5979;50.800;4.904;2024-03-08T13:42:11;12.00;;;10.00;;
11839;SDS011;5979;50.800;4.904;2024-03-08T13:44:47;15.30;;;9.98;;
11839;SDS011;5979;50.800;4.904;2024-03-08T13:47:17;13.77;;;10.00;;
11839;SDS011;5979;50.800;4.904;2024-03-08T13:49:43;10.68;;;9.45;;
11839;SDS011;5979;50.800;4.904;2024-03-08T13:52:10;14.15;;;9.77;;
11839;SDS011;5979;50.800;4.904;2024-03-08T13:54:37;12.48;;;9.80;;
11839;SDS011;5979;50.800;4.904;2024-03-08T13:57:03;13.60;;;10.70;;
11839;SDS011;5979;50.800;4.904;2024-03-08T13:59:38;13.23;;;10.40;;
11839;SDS011;5979;50.800;4.904;2024-03-08T14:02:04;13.60;;;10.75;;
11839;SDS011;5979;50.800;4.904;2024-03-08T14:04:30;12.80;;;10.50;;
11839;SDS011;5979;50.800;4.904;2024-03-08T14:06:56;13.25;;;10.35;;
11839;SDS011;5979;50.800;4.904;2024-03-08T14:09:25;16.33;;;11.20;;
11839;SDS011;5979;50.800;4.904;2024-03-08T14:11:54;14.85;;;11.43;;
11839;SDS011;5979;50.800;4.904;2024-03-08T14:14:21;12.50;;;10.60;;
11839;SDS011;5979;50.800;4.904;2024-03-08T14:16:50;13.32;;;10.90;;
11839;SDS011;5979;50.800;4.904;2024-03-08T14:19:19;17.52;;;11.60;;
11839;SDS011;5979;50.800;4.904;2024-03-08T14:21:45;18.23;;;12.55;;
11839;SDS011;5979;50.800;4.904;2024-03-08T14:24:13;13.98;;;11.02;;
11839;SDS011;5979;50.800;4.904;2024-03-08T14:26:42;20.77;;;12.60;;
11839;SDS011;5979;50.800;4.904;2024-03-08T14:29:08;15.23;;;11.38;;
11839;SDS011;5979;50.800;4.904;2024-03-08T14:31:37;16.00;;;11.63;;
11839;SDS011;5979;50.800;4.904;2024-03-08T14:34:03;14.52;;;11.82;;
11839;SDS011;5979;50.800;4.904;2024-03-08T14:36:29;15.00;;;12.23;;
11839;SDS011;5979;50.800;4.904;2024-03-08T14:38:55;14.93;;;12.02;;
11839;SDS011;5979;50.800;4.904;2024-03-08T14:41:21;19.20;;;11.73;;
11839;SDS011;5979;50.800;4.904;2024-03-08T14:43:49;14.55;;;12.07;;
11839;SDS011;5979;50.800;4.904;2024-03-08T14:46:17;15.95;;;12.25;;
11839;SDS011;5979;50.800;4.904;2024-03-08T14:48:52;14.90;;;12.48;;
11839;SDS011;5979;50.800;4.904;2024-03-08T14:51:21;14.32;;;12.00;;